sensor_id;sensor_type;location;lat;lon;timestamp;temperature;humidity
3100;DHT22;1560;52.746;13.474;2023-04-06T00:04:00;3.90;99.90
3100;DHT22;1560;52.746;13.474;2023-04-06T00:06:29;4.00;99.90
3100;DHT22;1560;52.746;13.474;2023-04-06T00:11:37;4.00;99.90
3100;DHT22;1560;52.746;13.474;2023-04-06T00:14:06;3.90;99.90
3100;DHT22;1560;52.746;13.474;2023-04-06T00:16:35;3.90;99.90
3100;DHT22;1560;52.746;13.474;2023-04-06T00:19:04;3.90;99.90
3100;DHT22;1560;52.746;13.474;2023-04-06T00:21:32;3.90;99.90
3100;DHT22;1560;52.746;13.474;2023-04-06T00:26:38;3.90;99.90
3100;DHT22;1560;52.746;13.474;2023-04-06T00:29:06;3.90;99.90
3100;DHT22;1560;52.746;13.474;2023-04-06T00:31:35;3.90;99.90
3100;DHT22;1560;52.746;13.474;2023-04-06T00:34:05;3.90;99.90
3100;DHT22;1560;52.746;13.474;2023-04-06T00:36:34;3.90;99.90
3100;DHT22;1560;52.746;13.474;2023-04-06T00:41:42;3.80;99.90
3100;DHT22;1560;52.746;13.474;2023-04-06T00:44:13;3.80;99.90
3100;DHT22;1560;52.746;13.474;2023-04-06T00:49:18;3.80;99.90
3100;DHT22;1560;52.746;13.474;2023-04-06T00:54:24;3.80;99.90
3100;DHT22;1560;52.746;13.474;2023-04-06T00:56:53;3.80;99.90
3100;DHT22;1560;52.746;13.474;2023-04-06T00:59:22;3.70;99.90
3100;DHT22;1560;52.746;13.474;2023-04-06T01:01:51;3.70;99.90
3100;DHT22;1560;52.746;13.474;2023-04-06T01:04:20;3.70;99.90
3100;DHT22;1560;52.746;13.474;2023-04-06T01:06:50;3.70;99.90
3100;DHT22;1560;52.746;13.474;2023-04-06T01:09:19;3.70;99.90
3100;DHT22;1560;52.746;13.474;2023-04-06T01:14:25;3.70;99.90
3100;DHT22;1560;52.746;13.474;2023-04-06T01:16:57;3.70;99.90
3100;DHT22;1560;52.746;13.474;2023-04-06T01:19:24;3.70;99.90
3100;DHT22;1560;52.746;13.474;2023-04-06T01:24:30;3.70;99.90
3100;DHT22;1560;52.746;13.474;2023-04-06T01:26:59;3.60;99.90
3100;DHT22;1560;52.746;13.474;2023-04-06T01:29:28;3.60;99.90
3100;DHT22;1560;52.746;13.474;2023-04-06T01:31:57;3.60;99.90
3100;DHT22;1560;52.746;13.474;2023-04-06T01:37:03;3.60;99.90
3100;DHT22;1560;52.746;13.474;2023-04-06T01:39:32;3.60;99.90
3100;DHT22;1560;52.746;13.474;2023-04-06T01:42:01;3.50;99.90
3100;DHT22;1560;52.746;13.474;2023-04-06T01:47:06;3.50;99.90
3100;DHT22;1560;52.746;13.474;2023-04-06T01:52:12;3.40;99.90
3100;DHT22;1560;52.746;13.474;2023-04-06T01:54:41;3.40;99.90
3100;DHT22;1560;52.746;13.474;2023-04-06T01:57:11;3.40;99.90
3100;DHT22;1560;52.746;13.474;2023-04-06T01:59:39;3.30;99.90
3100;DHT22;1560;52.746;13.474;2023-04-06T02:02:08;3.30;99.90
3100;DHT22;1560;52.746;13.474;2023-04-06T02:04:37;3.30;99.90
3100;DHT22;1560;52.746;13.474;2023-04-06T02:07:06;3.30;99.90
3100;DHT22;1560;52.746;13.474;2023-04-06T02:09:36;3.30;99.90
3100;DHT22;1560;52.746;13.474;2023-04-06T02:12:05;3.30;99.90
3100;DHT22;1560;52.746;13.474;2023-04-06T02:14:34;3.30;99.90
3100;DHT22;1560;52.746;13.474;2023-04-06T02:17:02;3.20;99.90
3100;DHT22;1560;52.746;13.474;2023-04-06T02:19:31;3.20;99.90
3100;DHT22;1560;52.746;13.474;2023-04-06T02:22:00;3.10;99.90
3100;DHT22;1560;52.746;13.474;2023-04-06T02:24:29;3.10;99.90
3100;DHT22;1560;52.746;13.474;2023-04-06T02:29:34;3.10;99.90
3100;DHT22;1560;52.746;13.474;2023-04-06T02:32:03;3.00;99.90
3100;DHT22;1560;52.746;13.474;2023-04-06T02:37:09;2.90;99.90
3100;DHT22;1560;52.746;13.474;2023-04-06T02:39:37;2.80;99.90
3100;DHT22;1560;52.746;13.474;2023-04-06T02:42:06;2.80;99.90
3100;DHT22;1560;52.746;13.474;2023-04-06T02:44:36;2.80;99.90
3100;DHT22;1560;52.746;13.474;2023-04-06T02:47:05;2.70;99.90
3100;DHT22;1560;52.746;13.474;2023-04-06T02:49:34;2.60;99.90
3100;DHT22;1560;52.746;13.474;2023-04-06T02:52:03;2.70;99.90
3100;DHT22;1560;52.746;13.474;2023-04-06T02:57:08;2.60;99.90
3100;DHT22;1560;52.746;13.474;2023-04-06T02:59:37;2.50;99.90
3100;DHT22;1560;52.746;13.474;2023-04-06T03:02:06;2.60;99.90
3100;DHT22;1560;52.746;13.474;2023-04-06T03:04:35;2.50;99.90
3100;DHT22;1560;52.746;13.474;2023-04-06T03:09:41;2.40;99.90
3100;DHT22;1560;52.746;13.474;2023-04-06T03:12:10;2.40;99.90
3100;DHT22;1560;52.746;13.474;2023-04-06T03:14:39;2.30;99.90
3100;DHT22;1560;52.746;13.474;2023-04-06T03:17:08;2.20;99.90
3100;DHT22;1560;52.746;13.474;2023-04-06T03:22:14;2.00;99.90
3100;DHT22;1560;52.746;13.474;2023-04-06T03:24:43;2.00;99.90
3100;DHT22;1560;52.746;13.474;2023-04-06T03:29:49;1.90;99.90
3100;DHT22;1560;52.746;13.474;2023-04-06T03:32:18;1.90;99.90
3100;DHT22;1560;52.746;13.474;2023-04-06T03:34:47;1.90;99.90
3100;DHT22;1560;52.746;13.474;2023-04-06T03:37:15;1.90;99.90
3100;DHT22;1560;52.746;13.474;2023-04-06T03:42:21;1.80;99.90
3100;DHT22;1560;52.746;13.474;2023-04-06T03:44:50;1.80;99.90
3100;DHT22;1560;52.746;13.474;2023-04-06T03:47:19;1.80;99.90
3100;DHT22;1560;52.746;13.474;2023-04-06T03:49:48;1.80;99.90
3100;DHT22;1560;52.746;13.474;2023-04-06T03:52:17;1.70;99.90
3100;DHT22;1560;52.746;13.474;2023-04-06T03:54:46;1.70;99.90
3100;DHT22;1560;52.746;13.474;2023-04-06T03:57:15;1.70;99.90
3100;DHT22;1560;52.746;13.474;2023-04-06T04:02:28;1.70;99.90
3100;DHT22;1560;52.746;13.474;2023-04-06T04:05:01;1.70;99.90
3100;DHT22;1560;52.746;13.474;2023-04-06T04:07:30;1.70;99.90
3100;DHT22;1560;52.746;13.474;2023-04-06T04:12:36;1.60;99.90
3100;DHT22;1560;52.746;13.474;2023-04-06T04:15:08;1.60;99.90
3100;DHT22;1560;52.746;13.474;2023-04-06T04:17:37;1.60;99.90
3100;DHT22;1560;52.746;13.474;2023-04-06T04:20:08;1.60;99.90
3100;DHT22;1560;52.746;13.474;2023-04-06T04:22:36;1.60;99.90
3100;DHT22;1560;52.746;13.474;2023-04-06T04:25:07;1.60;99.90
3100;DHT22;1560;52.746;13.474;2023-04-06T04:27:36;1.60;99.90
3100;DHT22;1560;52.746;13.474;2023-04-06T04:30:06;1.50;99.90
3100;DHT22;1560;52.746;13.474;2023-04-06T04:32:35;1.50;99.90
3100;DHT22;1560;52.746;13.474;2023-04-06T04:35:05;1.50;99.90
3100;DHT22;1560;52.746;13.474;2023-04-06T04:37:34;1.40;99.90
3100;DHT22;1560;52.746;13.474;2023-04-06T04:40:04;1.40;99.90
3100;DHT22;1560;52.746;13.474;2023-04-06T04:42:33;1.40;99.90
3100;DHT22;1560;52.746;13.474;2023-04-06T04:45:02;1.40;99.90
3100;DHT22;1560;52.746;13.474;2023-04-06T04:47:30;1.40;99.90
3100;DHT22;1560;52.746;13.474;2023-04-06T04:49:59;1.40;99.90
3100;DHT22;1560;52.746;13.474;2023-04-06T04:52:28;1.40;99.90
3100;DHT22;1560;52.746;13.474;2023-04-06T04:57:34;1.30;99.90
3100;DHT22;1560;52.746;13.474;2023-04-06T05:00:05;1.20;99.90
3100;DHT22;1560;52.746;13.474;2023-04-06T05:05:11;1.20;99.90
3100;DHT22;1560;52.746;13.474;2023-04-06T05:07:40;1.10;99.90
3100;DHT22;1560;52.746;13.474;2023-04-06T05:10:10;1.10;99.90
3100;DHT22;1560;52.746;13.474;2023-04-06T05:15:16;1.10;99.90
3100;DHT22;1560;52.746;13.474;2023-04-06T05:17:46;1.10;99.90
3100;DHT22;1560;52.746;13.474;2023-04-06T05:20:15;1.10;99.90
3100;DHT22;1560;52.746;13.474;2023-04-06T05:22:44;1.20;99.90
3100;DHT22;1560;52.746;13.474;2023-04-06T05:25:13;1.20;99.90
3100;DHT22;1560;52.746;13.474;2023-04-06T05:27:42;1.20;99.90
3100;DHT22;1560;52.746;13.474;2023-04-06T05:30:12;1.20;99.90
3100;DHT22;1560;52.746;13.474;2023-04-06T05:35:18;1.20;99.90
3100;DHT22;1560;52.746;13.474;2023-04-06T05:37:47;1.20;99.90
3100;DHT22;1560;52.746;13.474;2023-04-06T05:40:16;1.20;99.90
3100;DHT22;1560;52.746;13.474;2023-04-06T05:42:45;1.20;99.90
3100;DHT22;1560;52.746;13.474;2023-04-06T05:45:14;1.20;99.90
3100;DHT22;1560;52.746;13.474;2023-04-06T05:47:46;1.20;99.90
3100;DHT22;1560;52.746;13.474;2023-04-06T05:50:15;1.20;99.90
3100;DHT22;1560;52.746;13.474;2023-04-06T05:55:20;1.20;99.90
3100;DHT22;1560;52.746;13.474;2023-04-06T05:57:49;1.20;99.90
3100;DHT22;1560;52.746;13.474;2023-04-06T06:00:19;1.20;99.90
3100;DHT22;1560;52.746;13.474;2023-04-06T06:02:48;1.30;99.90
3100;DHT22;1560;52.746;13.474;2023-04-06T06:07:55;1.30;99.90
3100;DHT22;1560;52.746;13.474;2023-04-06T06:10:23;1.30;99.90
3100;DHT22;1560;52.746;13.474;2023-04-06T06:15:30;1.30;99.90
3100;DHT22;1560;52.746;13.474;2023-04-06T06:17:59;1.30;99.90
3100;DHT22;1560;52.746;13.474;2023-04-06T06:20:28;1.30;99.90
3100;DHT22;1560;52.746;13.474;2023-04-06T06:22:56;1.40;99.90
3100;DHT22;1560;52.746;13.474;2023-04-06T06:25:25;1.40;99.90
3100;DHT22;1560;52.746;13.474;2023-04-06T06:27:54;1.40;99.90
3100;DHT22;1560;52.746;13.474;2023-04-06T06:30:23;1.40;99.90
3100;DHT22;1560;52.746;13.474;2023-04-06T06:32:52;1.50;99.90
3100;DHT22;1560;52.746;13.474;2023-04-06T06:35:20;1.50;99.90
3100;DHT22;1560;52.746;13.474;2023-04-06T06:37:49;1.60;99.90
3100;DHT22;1560;52.746;13.474;2023-04-06T06:40:18;1.70;99.90
3100;DHT22;1560;52.746;13.474;2023-04-06T06:45:26;1.80;99.90
3100;DHT22;1560;52.746;13.474;2023-04-06T06:47:57;1.90;99.90
3100;DHT22;1560;52.746;13.474;2023-04-06T06:50:25;2.00;99.90
3100;DHT22;1560;52.746;13.474;2023-04-06T06:55:30;2.20;99.90
3100;DHT22;1560;52.746;13.474;2023-04-06T06:57:59;2.40;99.90
3100;DHT22;1560;52.746;13.474;2023-04-06T07:00:28;2.60;99.90
3100;DHT22;1560;52.746;13.474;2023-04-06T07:02:57;2.80;99.90
3100;DHT22;1560;52.746;13.474;2023-04-06T07:05:26;3.00;99.90
3100;DHT22;1560;52.746;13.474;2023-04-06T07:07:55;3.20;99.90
3100;DHT22;1560;52.746;13.474;2023-04-06T07:10:24;3.40;99.90
3100;DHT22;1560;52.746;13.474;2023-04-06T07:12:53;3.60;99.90
3100;DHT22;1560;52.746;13.474;2023-04-06T07:15:22;3.90;99.90
3100;DHT22;1560;52.746;13.474;2023-04-06T07:20:28;4.40;99.90
3100;DHT22;1560;52.746;13.474;2023-04-06T07:22:56;4.60;99.90
3100;DHT22;1560;52.746;13.474;2023-04-06T07:28:02;4.90;99.90
3100;DHT22;1560;52.746;13.474;2023-04-06T07:30:31;5.10;99.90
3100;DHT22;1560;52.746;13.474;2023-04-06T07:33:00;5.30;99.90
3100;DHT22;1560;52.746;13.474;2023-04-06T07:35:28;5.60;99.90
3100;DHT22;1560;52.746;13.474;2023-04-06T07:37:58;5.70;99.90
3100;DHT22;1560;52.746;13.474;2023-04-06T07:43:03;6.00;99.90
3100;DHT22;1560;52.746;13.474;2023-04-06T07:45:32;6.20;99.90
3100;DHT22;1560;52.746;13.474;2023-04-06T07:48:01;6.30;99.90
3100;DHT22;1560;52.746;13.474;2023-04-06T07:50:30;6.50;99.90
3100;DHT22;1560;52.746;13.474;2023-04-06T07:52:59;6.60;99.90
3100;DHT22;1560;52.746;13.474;2023-04-06T07:55:28;6.80;99.90
3100;DHT22;1560;52.746;13.474;2023-04-06T07:57:57;7.00;99.90
3100;DHT22;1560;52.746;13.474;2023-04-06T08:03:03;7.30;99.90
3100;DHT22;1560;52.746;13.474;2023-04-06T08:05:32;7.40;99.90
3100;DHT22;1560;52.746;13.474;2023-04-06T08:08:01;7.50;99.90
3100;DHT22;1560;52.746;13.474;2023-04-06T08:10:30;7.60;99.90
3100;DHT22;1560;52.746;13.474;2023-04-06T08:12:59;7.80;99.90
3100;DHT22;1560;52.746;13.474;2023-04-06T08:18:05;8.00;99.90
3100;DHT22;1560;52.746;13.474;2023-04-06T08:20:33;8.10;99.90
3100;DHT22;1560;52.746;13.474;2023-04-06T08:25:39;8.40;99.70
3100;DHT22;1560;52.746;13.474;2023-04-06T08:28:07;8.50;97.80
3100;DHT22;1560;52.746;13.474;2023-04-06T08:30:39;8.60;97.00
3100;DHT22;1560;52.746;13.474;2023-04-06T08:33:07;8.70;95.20
3100;DHT22;1560;52.746;13.474;2023-04-06T08:35:36;8.70;94.20
3100;DHT22;1560;52.746;13.474;2023-04-06T08:40:41;9.00;95.70
3100;DHT22;1560;52.746;13.474;2023-04-06T08:43:14;9.20;98.30
3100;DHT22;1560;52.746;13.474;2023-04-06T08:48:19;9.30;92.60
3100;DHT22;1560;52.746;13.474;2023-04-06T08:53:25;9.50;91.60
3100;DHT22;1560;52.746;13.474;2023-04-06T08:55:55;9.60;94.90
3100;DHT22;1560;52.746;13.474;2023-04-06T08:58:24;9.70;93.30
3100;DHT22;1560;52.746;13.474;2023-04-06T09:03:32;9.90;92.40
3100;DHT22;1560;52.746;13.474;2023-04-06T09:08:42;9.90;83.50
3100;DHT22;1560;52.746;13.474;2023-04-06T09:13:48;10.20;75.90
3100;DHT22;1560;52.746;13.474;2023-04-06T09:16:18;10.30;85.40
3100;DHT22;1560;52.746;13.474;2023-04-06T09:18:47;10.40;76.30
3100;DHT22;1560;52.746;13.474;2023-04-06T09:24:00;10.00;67.10
3100;DHT22;1560;52.746;13.474;2023-04-06T09:29:07;10.40;76.40
3100;DHT22;1560;52.746;13.474;2023-04-06T09:34:21;10.60;77.00
3100;DHT22;1560;52.746;13.474;2023-04-06T09:36:51;10.60;70.40
3100;DHT22;1560;52.746;13.474;2023-04-06T09:41:58;10.90;81.80
3100;DHT22;1560;52.746;13.474;2023-04-06T09:44:29;10.90;61.50
3100;DHT22;1560;52.746;13.474;2023-04-06T09:46:58;10.50;55.00
3100;DHT22;1560;52.746;13.474;2023-04-06T09:49:28;10.20;63.50
3100;DHT22;1560;52.746;13.474;2023-04-06T09:54:38;9.90;59.10
3100;DHT22;1560;52.746;13.474;2023-04-06T09:59:50;9.90;75.00
3100;DHT22;1560;52.746;13.474;2023-04-06T10:05:01;10.50;64.50
3100;DHT22;1560;52.746;13.474;2023-04-06T10:07:29;10.40;65.30
3100;DHT22;1560;52.746;13.474;2023-04-06T10:12:36;10.40;65.90
3100;DHT22;1560;52.746;13.474;2023-04-06T10:15:08;10.50;55.20
3100;DHT22;1560;52.746;13.474;2023-04-06T10:17:37;10.30;49.70
3100;DHT22;1560;52.746;13.474;2023-04-06T10:22:49;9.90;57.40
3100;DHT22;1560;52.746;13.474;2023-04-06T10:25:26;9.90;50.90
3100;DHT22;1560;52.746;13.474;2023-04-06T10:28:00;10.30;60.90
3100;DHT22;1560;52.746;13.474;2023-04-06T10:30:29;10.70;60.70
3100;DHT22;1560;52.746;13.474;2023-04-06T10:32:59;10.90;56.60
3100;DHT22;1560;52.746;13.474;2023-04-06T10:38:13;10.70;60.70
3100;DHT22;1560;52.746;13.474;2023-04-06T10:40:43;10.70;56.30
3100;DHT22;1560;52.746;13.474;2023-04-06T10:45:56;11.00;99.90
3100;DHT22;1560;52.746;13.474;2023-04-06T10:48:25;11.50;56.90
3100;DHT22;1560;52.746;13.474;2023-04-06T10:50:55;11.70;51.50
3100;DHT22;1560;52.746;13.474;2023-04-06T10:53:26;11.70;46.80
3100;DHT22;1560;52.746;13.474;2023-04-06T10:55:56;11.30;39.10
3100;DHT22;1560;52.746;13.474;2023-04-06T11:01:03;10.60;48.60
3100;DHT22;1560;52.746;13.474;2023-04-06T11:03:32;10.50;50.20
3100;DHT22;1560;52.746;13.474;2023-04-06T11:06:02;10.50;1.00
3100;DHT22;1560;52.746;13.474;2023-04-06T11:08:32;10.50;1.00
3100;DHT22;1560;52.746;13.474;2023-04-06T11:11:09;10.80;1.00
3100;DHT22;1560;52.746;13.474;2023-04-06T11:13:40;11.00;1.00
3100;DHT22;1560;52.746;13.474;2023-04-06T11:18:54;11.30;1.00
3100;DHT22;1560;52.746;13.474;2023-04-06T11:21:35;11.60;1.00
3100;DHT22;1560;52.746;13.474;2023-04-06T11:26:45;12.00;1.00
3100;DHT22;1560;52.746;13.474;2023-04-06T11:31:54;11.80;34.00
3100;DHT22;1560;52.746;13.474;2023-04-06T11:34:25;11.60;31.40
3100;DHT22;1560;52.746;13.474;2023-04-06T11:36:56;11.50;36.50
3100;DHT22;1560;52.746;13.474;2023-04-06T11:42:02;11.20;34.50
3100;DHT22;1560;52.746;13.474;2023-04-06T11:44:34;11.10;1.00
3100;DHT22;1560;52.746;13.474;2023-04-06T11:49:43;10.90;1.00
3100;DHT22;1560;52.746;13.474;2023-04-06T11:52:17;10.80;1.00
3100;DHT22;1560;52.746;13.474;2023-04-06T11:54:47;10.70;1.00
3100;DHT22;1560;52.746;13.474;2023-04-06T11:59:53;10.40;1.00
3100;DHT22;1560;52.746;13.474;2023-04-06T12:02:23;10.80;1.00
3100;DHT22;1560;52.746;13.474;2023-04-06T12:04:52;11.40;1.00
3100;DHT22;1560;52.746;13.474;2023-04-06T12:09:57;12.80;1.00
3100;DHT22;1560;52.746;13.474;2023-04-06T12:12:26;12.70;1.00
3100;DHT22;1560;52.746;13.474;2023-04-06T12:14:56;12.40;1.00
3100;DHT22;1560;52.746;13.474;2023-04-06T12:20:01;12.20;1.00
3100;DHT22;1560;52.746;13.474;2023-04-06T12:22:30;12.20;1.00
3100;DHT22;1560;52.746;13.474;2023-04-06T12:25:00;11.60;1.00
3100;DHT22;1560;52.746;13.474;2023-04-06T12:27:30;11.60;1.00
3100;DHT22;1560;52.746;13.474;2023-04-06T12:29:58;11.50;1.00
3100;DHT22;1560;52.746;13.474;2023-04-06T12:35:04;11.80;1.00
3100;DHT22;1560;52.746;13.474;2023-04-06T12:37:33;12.20;1.00
3100;DHT22;1560;52.746;13.474;2023-04-06T12:42:39;12.30;1.00
3100;DHT22;1560;52.746;13.474;2023-04-06T12:45:10;12.50;1.00
3100;DHT22;1560;52.746;13.474;2023-04-06T12:47:39;12.20;1.00
3100;DHT22;1560;52.746;13.474;2023-04-06T12:52:44;11.40;1.00
3100;DHT22;1560;52.746;13.474;2023-04-06T12:55:13;11.30;1.00
3100;DHT22;1560;52.746;13.474;2023-04-06T12:57:44;11.40;1.00
3100;DHT22;1560;52.746;13.474;2023-04-06T13:02:50;11.50;1.00
3100;DHT22;1560;52.746;13.474;2023-04-06T13:05:19;11.50;1.00
3100;DHT22;1560;52.746;13.474;2023-04-06T13:07:48;11.60;1.00
3100;DHT22;1560;52.746;13.474;2023-04-06T13:10:17;11.60;1.00
3100;DHT22;1560;52.746;13.474;2023-04-06T13:12:51;11.40;1.00
3100;DHT22;1560;52.746;13.474;2023-04-06T13:15:27;11.20;1.00
3100;DHT22;1560;52.746;13.474;2023-04-06T13:18:00;10.90;1.00
3100;DHT22;1560;52.746;13.474;2023-04-06T13:23:05;11.20;1.00
3100;DHT22;1560;52.746;13.474;2023-04-06T13:25:36;11.00;1.00
3100;DHT22;1560;52.746;13.474;2023-04-06T13:28:06;10.70;1.00
3100;DHT22;1560;52.746;13.474;2023-04-06T13:33:12;10.40;1.00
3100;DHT22;1560;52.746;13.474;2023-04-06T13:35:41;10.40;1.00
3100;DHT22;1560;52.746;13.474;2023-04-06T13:38:11;10.20;1.00
3100;DHT22;1560;52.746;13.474;2023-04-06T13:40:41;10.40;1.00
3100;DHT22;1560;52.746;13.474;2023-04-06T13:45:50;10.30;1.00
3100;DHT22;1560;52.746;13.474;2023-04-06T13:48:19;10.30;1.00
3100;DHT22;1560;52.746;13.474;2023-04-06T13:50:48;10.10;1.00
3100;DHT22;1560;52.746;13.474;2023-04-06T13:53:17;10.20;1.00
3100;DHT22;1560;52.746;13.474;2023-04-06T13:55:55;10.40;1.00
3100;DHT22;1560;52.746;13.474;2023-04-06T13:58:24;10.40;1.00
3100;DHT22;1560;52.746;13.474;2023-04-06T14:00:53;10.60;1.00
3100;DHT22;1560;52.746;13.474;2023-04-06T14:05:58;10.80;1.00
3100;DHT22;1560;52.746;13.474;2023-04-06T14:11:06;11.00;1.00
3100;DHT22;1560;52.746;13.474;2023-04-06T14:13:36;10.90;1.00
3100;DHT22;1560;52.746;13.474;2023-04-06T14:16:06;10.90;1.00
3100;DHT22;1560;52.746;13.474;2023-04-06T14:18:37;11.00;1.00
3100;DHT22;1560;52.746;13.474;2023-04-06T14:21:06;11.00;1.00
3100;DHT22;1560;52.746;13.474;2023-04-06T14:23:35;11.00;1.00
3100;DHT22;1560;52.746;13.474;2023-04-06T14:26:05;11.00;1.00
3100;DHT22;1560;52.746;13.474;2023-04-06T14:41:45;11.00;1.00
3100;DHT22;1560;52.746;13.474;2023-04-06T14:44:16;10.90;1.00
3100;DHT22;1560;52.746;13.474;2023-04-06T14:46:50;10.90;1.00
3100;DHT22;1560;52.746;13.474;2023-04-06T14:49:22;10.90;1.00
3100;DHT22;1560;52.746;13.474;2023-04-06T14:54:28;10.80;1.00
3100;DHT22;1560;52.746;13.474;2023-04-06T14:56:58;10.80;1.00
3100;DHT22;1560;52.746;13.474;2023-04-06T15:02:10;10.70;1.00
3100;DHT22;1560;52.746;13.474;2023-04-06T15:04:40;10.70;1.00
3100;DHT22;1560;52.746;13.474;2023-04-06T15:07:13;10.70;1.00
3100;DHT22;1560;52.746;13.474;2023-04-06T15:44:02;10.20;1.00
3100;DHT22;1560;52.746;13.474;2023-04-06T16:10:38;10.20;1.00
3100;DHT22;1560;52.746;13.474;2023-04-06T16:13:17;9.80;1.00
3100;DHT22;1560;52.746;13.474;2023-04-06T17:24:45;9.20;1.00
3100;DHT22;1560;52.746;13.474;2023-04-06T17:30:43;9.10;1.00
3100;DHT22;1560;52.746;13.474;2023-04-06T17:33:22;8.80;1.00
3100;DHT22;1560;52.746;13.474;2023-04-06T17:36:01;8.70;1.00
3100;DHT22;1560;52.746;13.474;2023-04-06T18:00:12;8.50;17.70
3100;DHT22;1560;52.746;13.474;2023-04-06T18:02:50;8.40;99.90
3100;DHT22;1560;52.746;13.474;2023-04-06T18:05:28;8.30;99.90
3100;DHT22;1560;52.746;13.474;2023-04-06T18:08:11;8.30;20.30
3100;DHT22;1560;52.746;13.474;2023-04-06T18:10:52;8.10;99.90
3100;DHT22;1560;52.746;13.474;2023-04-06T18:33:43;7.50;99.90
3100;DHT22;1560;52.746;13.474;2023-04-06T18:50:15;7.30;1.00
3100;DHT22;1560;52.746;13.474;2023-04-06T18:52:45;7.00;99.90
3100;DHT22;1560;52.746;13.474;2023-04-06T18:55:16;6.90;99.90
3100;DHT22;1560;52.746;13.474;2023-04-06T19:00:57;6.60;99.90
3100;DHT22;1560;52.746;13.474;2023-04-06T19:06:58;6.60;99.90
3100;DHT22;1560;52.746;13.474;2023-04-06T19:33:38;6.70;99.90
3100;DHT22;1560;52.746;13.474;2023-04-06T19:36:13;5.90;99.90
3100;DHT22;1560;52.746;13.474;2023-04-06T20:13:40;6.00;1.00
3100;DHT22;1560;52.746;13.474;2023-04-06T20:16:08;5.30;1.00
3100;DHT22;1560;52.746;13.474;2023-04-06T20:23:51;5.10;99.90
3100;DHT22;1560;52.746;13.474;2023-04-06T20:26:20;5.10;99.80
3100;DHT22;1560;52.746;13.474;2023-04-06T20:28:49;5.10;99.90
3100;DHT22;1560;52.746;13.474;2023-04-06T20:31:18;5.00;1.00
3100;DHT22;1560;52.746;13.474;2023-04-06T20:49:27;4.30;99.90
3100;DHT22;1560;52.746;13.474;2023-04-06T20:54:39;4.10;1.00
3100;DHT22;1560;52.746;13.474;2023-04-06T20:57:08;4.30;73.20
3100;DHT22;1560;52.746;13.474;2023-04-06T20:59:36;4.30;99.90
3100;DHT22;1560;52.746;13.474;2023-04-06T21:02:05;4.10;99.90
3100;DHT22;1560;52.746;13.474;2023-04-06T21:07:11;4.20;1.00
3100;DHT22;1560;52.746;13.474;2023-04-06T21:12:16;4.30;99.90
3100;DHT22;1560;52.746;13.474;2023-04-06T21:14:45;4.40;1.00
3100;DHT22;1560;52.746;13.474;2023-04-06T21:17:14;4.40;99.90
3100;DHT22;1560;52.746;13.474;2023-04-06T21:19:43;4.40;99.90
3100;DHT22;1560;52.746;13.474;2023-04-06T21:24:49;4.30;99.90
3100;DHT22;1560;52.746;13.474;2023-04-06T21:27:20;4.30;99.90
3100;DHT22;1560;52.746;13.474;2023-04-06T21:32:27;4.10;1.00
3100;DHT22;1560;52.746;13.474;2023-04-06T21:34:57;4.10;1.00
3100;DHT22;1560;52.746;13.474;2023-04-06T21:37:26;4.10;99.90
3100;DHT22;1560;52.746;13.474;2023-04-06T21:42:34;3.90;99.90
3100;DHT22;1560;52.746;13.474;2023-04-06T21:47:44;3.90;86.40
3100;DHT22;1560;52.746;13.474;2023-04-06T21:50:15;3.90;1.00
3100;DHT22;1560;52.746;13.474;2023-04-06T21:52:45;3.90;1.00
3100;DHT22;1560;52.746;13.474;2023-04-06T21:55:14;3.80;99.90
3100;DHT22;1560;52.746;13.474;2023-04-06T22:00:20;3.80;99.90
3100;DHT22;1560;52.746;13.474;2023-04-06T22:02:52;3.80;99.90
3100;DHT22;1560;52.746;13.474;2023-04-06T22:11:23;3.60;1.00
3100;DHT22;1560;52.746;13.474;2023-04-06T22:13:53;3.50;1.00
3100;DHT22;1560;52.746;13.474;2023-04-06T22:16:26;3.50;99.90
3100;DHT22;1560;52.746;13.474;2023-04-06T22:32:11;3.40;99.90
3100;DHT22;1560;52.746;13.474;2023-04-06T22:34:42;3.10;1.00
3100;DHT22;1560;52.746;13.474;2023-04-06T22:37:11;3.10;99.90
3100;DHT22;1560;52.746;13.474;2023-04-06T22:39:44;3.00;1.00
3100;DHT22;1560;52.746;13.474;2023-04-06T22:42:14;3.00;1.00
3100;DHT22;1560;52.746;13.474;2023-04-06T22:44:43;3.00;1.00
3100;DHT22;1560;52.746;13.474;2023-04-06T22:47:12;3.00;99.90
3100;DHT22;1560;52.746;13.474;2023-04-06T22:49:41;3.00;99.90
3100;DHT22;1560;52.746;13.474;2023-04-06T22:52:10;3.00;99.90
3100;DHT22;1560;52.746;13.474;2023-04-06T22:57:15;3.00;99.90
3100;DHT22;1560;52.746;13.474;2023-04-06T23:02:21;3.00;99.90
3100;DHT22;1560;52.746;13.474;2023-04-06T23:04:50;3.00;99.90
3100;DHT22;1560;52.746;13.474;2023-04-06T23:10:01;2.90;1.00
3100;DHT22;1560;52.746;13.474;2023-04-06T23:12:31;2.90;1.00
3100;DHT22;1560;52.746;13.474;2023-04-06T23:17:36;2.80;99.90
3100;DHT22;1560;52.746;13.474;2023-04-06T23:20:07;2.80;1.00
3100;DHT22;1560;52.746;13.474;2023-04-06T23:25:12;2.70;99.90
3100;DHT22;1560;52.746;13.474;2023-04-06T23:27:41;2.70;1.00
3100;DHT22;1560;52.746;13.474;2023-04-06T23:30:11;2.60;10.80
3100;DHT22;1560;52.746;13.474;2023-04-06T23:32:40;2.50;99.90
3100;DHT22;1560;52.746;13.474;2023-04-06T23:35:09;2.30;99.90
3100;DHT22;1560;52.746;13.474;2023-04-06T23:37:38;2.20;99.90
3100;DHT22;1560;52.746;13.474;2023-04-06T23:40:08;2.10;1.00
3100;DHT22;1560;52.746;13.474;2023-04-06T23:42:37;2.10;1.00
3100;DHT22;1560;52.746;13.474;2023-04-06T23:45:08;2.20;37.30
3100;DHT22;1560;52.746;13.474;2023-04-06T23:50:13;2.20;93.90
3100;DHT22;1560;52.746;13.474;2023-04-06T23:52:42;2.20;72.00
3100;DHT22;1560;52.746;13.474;2023-04-06T23:55:11;2.10;62.50
3100;DHT22;1560;52.746;13.474;2023-04-06T23:57:40;2.10;99.90
